createdAt,value
2023-03-06T00:06:10.922Z,66.68
2023-03-06T00:09:15.048Z,66.19
2023-03-06T00:12:21.782Z,66.41
2023-03-06T00:15:27.980Z,67.56
2023-03-06T00:18:34.051Z,65.83
2023-03-06T00:21:45.701Z,65.31
2023-03-06T00:24:49.864Z,64.88
2023-03-06T00:27:54.159Z,65.57
2023-03-06T00:30:58.641Z,66.41
2023-03-06T00:34:02.456Z,66.71
2023-03-06T00:37:06.518Z,67.87
2023-03-06T00:43:30.860Z,70.16
2023-03-06T00:46:34.560Z,69.86
2023-03-06T00:49:38.970Z,68.25
2023-03-06T00:52:43.717Z,67.53
2023-03-06T00:55:50.647Z,67.01
2023-03-06T00:58:59.232Z,66.60
2023-03-06T01:05:27.598Z,67.46
2023-03-06T01:08:31.830Z,68.89
2023-03-06T01:11:35.630Z,67.54
2023-03-06T01:14:40.012Z,67.72
2023-03-06T01:17:45.209Z,67.48
2023-03-06T01:24:26.069Z,67.08
2023-03-06T01:27:30.491Z,67.09
2023-03-06T01:33:56.569Z,68.65
2023-03-06T01:37:01.826Z,70.22
2023-03-06T01:40:05.725Z,70.83
2023-03-06T01:43:10.410Z,69.27
2023-03-06T01:46:14.516Z,69.80
2023-03-06T01:49:18.714Z,69.90
2023-03-06T01:52:27.008Z,71.48
2023-03-06T01:55:34.545Z,70.37
2023-03-06T02:02:04.003Z,70.32
2023-03-06T02:05:15.760Z,70.80
2023-03-06T02:08:20.937Z,70.08
2023-03-06T02:11:33.216Z,70.50
2023-03-06T02:14:37.491Z,72.64
2023-03-06T02:17:50.759Z,72.45
2023-03-06T02:20:56.389Z,72.69
2023-03-06T02:24:00.419Z,72.54
2023-03-06T02:27:11.898Z,73.67
2023-03-06T02:30:16.135Z,73.11
2023-03-06T02:33:20.293Z,73.38
2023-03-06T02:36:24.552Z,71.53
2023-03-06T02:39:40.426Z,70.96
2023-03-06T02:42:44.791Z,69.00
2023-03-06T02:45:49.664Z,68.25
2023-03-06T02:48:55.558Z,70.66
2023-03-06T02:52:01.161Z,70.65
2023-03-06T02:55:05.414Z,70.91
2023-03-06T02:58:10.741Z,70.65
2023-03-06T03:01:16.305Z,69.85
2023-03-06T03:04:24.132Z,69.96
2023-03-06T03:07:28.245Z,70.39
2023-03-06T03:10:32.342Z,71.91
2023-03-06T03:13:40.030Z,71.78
2023-03-06T03:16:44.357Z,72.88
2023-03-06T03:19:49.620Z,72.56
2023-03-06T03:23:02.510Z,73.19
2023-03-06T03:26:07.985Z,73.01
2023-03-06T03:29:14.542Z,71.84
2023-03-06T03:32:31.782Z,71.46
2023-03-06T03:35:39.555Z,71.55
2023-03-06T03:39:08.560Z,70.46
2023-03-06T03:42:14.491Z,69.48
2023-03-06T03:45:20.454Z,69.28
2023-03-06T03:51:40.894Z,72.48
2023-03-06T03:54:46.562Z,72.77
2023-03-06T03:57:52.276Z,73.04
2023-03-06T04:04:08.907Z,71.74
2023-03-06T04:10:51.238Z,69.20
2023-03-06T04:13:59.974Z,69.79
2023-03-06T04:17:05.320Z,71.00
2023-03-06T04:20:09.353Z,71.89
2023-03-06T04:26:37.465Z,73.70
2023-03-06T04:29:41.767Z,72.82
2023-03-06T04:36:09.860Z,74.59
2023-03-06T04:39:14.468Z,72.91
2023-03-06T04:42:21.388Z,72.22
2023-03-06T04:45:26.065Z,72.26
2023-03-06T04:48:29.988Z,70.24
2023-03-06T04:51:36.874Z,69.30
2023-03-06T04:54:46.473Z,72.75
2023-03-06T04:57:50.811Z,72.91
2023-03-06T05:00:55.266Z,74.08
2023-03-06T05:04:06.733Z,73.68
2023-03-06T05:07:12.819Z,73.75
2023-03-06T05:10:19.521Z,73.94
2023-03-06T05:13:23.880Z,73.19
2023-03-06T05:16:28.081Z,71.30
2023-03-06T05:19:37.450Z,72.02
2023-03-06T05:26:09.932Z,72.56
2023-03-06T05:29:14.651Z,72.92
2023-03-06T05:35:42.921Z,73.19
2023-03-06T05:38:51.362Z,73.39
2023-03-06T05:41:56.177Z,72.43
2023-03-06T05:48:48.937Z,71.76
2023-03-06T05:51:54.785Z,72.34
2023-03-06T05:55:02.494Z,73.38
2023-03-06T05:58:06.813Z,72.37
2023-03-06T06:01:10.966Z,71.70
2023-03-06T06:04:14.860Z,71.40
2023-03-06T06:07:18.718Z,72.93
2023-03-06T06:10:22.673Z,74.36
2023-03-06T06:13:34.510Z,74.26
2023-03-06T06:16:38.824Z,71.97
2023-03-06T06:19:42.770Z,70.66
2023-03-06T06:22:46.946Z,70.76
2023-03-06T06:25:51.004Z,71.29
2023-03-06T06:28:55.321Z,72.84
2023-03-06T06:32:03.499Z,72.76
2023-03-06T06:35:18.962Z,71.59
2023-03-06T06:38:25.406Z,70.63
2023-03-06T06:41:53.671Z,71.03
2023-03-06T06:45:48.376Z,70.64
2023-03-06T06:54:42.393Z,70.74
2023-03-06T07:01:15.299Z,69.12
2023-03-06T07:07:41.958Z,67.49
2023-03-06T07:10:46.425Z,66.68
2023-03-06T07:13:50.734Z,67.05
2023-03-06T07:16:55.649Z,66.82
2023-03-06T07:20:01.766Z,65.64
2023-03-06T07:23:05.811Z,66.06
2023-03-06T07:26:10.702Z,65.03
2023-03-06T07:29:15.076Z,66.20
2023-03-06T07:32:20.935Z,65.95
2023-03-06T07:35:24.809Z,64.73
2023-03-06T07:38:28.818Z,64.49
2023-03-06T07:41:32.914Z,64.02
2023-03-06T07:44:37.127Z,64.99
2023-03-06T07:47:41.745Z,64.66
2023-03-06T07:50:45.769Z,63.29
2023-03-06T07:53:50.480Z,63.47
2023-03-06T07:56:55.788Z,62.92
2023-03-06T07:59:59.948Z,63.93
2023-03-06T08:03:05.643Z,62.73
2023-03-06T08:06:09.818Z,61.40
2023-03-06T08:09:13.550Z,61.86
2023-03-06T08:12:18.719Z,61.40
2023-03-06T08:15:23.024Z,61.58
2023-03-06T08:18:32.726Z,61.11
2023-03-06T08:21:38.234Z,61.14
2023-03-06T08:24:42.629Z,60.50
2023-03-06T08:27:46.594Z,61.41
2023-03-06T08:30:51.812Z,61.45
2023-03-06T08:33:56.044Z,60.50
2023-03-06T08:37:00.110Z,59.16
2023-03-06T08:40:06.308Z,60.90
2023-03-06T08:43:11.829Z,60.30
2023-03-06T08:46:17.566Z,59.72
2023-03-06T08:49:21.379Z,59.98
2023-03-06T08:52:25.308Z,59.25
2023-03-06T08:55:29.860Z,59.14
2023-03-06T08:58:34.036Z,59.85
2023-03-06T09:01:38.143Z,59.57
2023-03-06T09:04:42.235Z,59.29
2023-03-06T09:07:45.972Z,58.11
2023-03-06T09:10:50.582Z,56.85
2023-03-06T09:13:55.335Z,57.63
2023-03-06T09:16:59.118Z,57.55
2023-03-06T09:20:03.414Z,59.47
2023-03-06T09:23:07.715Z,60.05
2023-03-06T09:26:12.231Z,60.01
2023-03-06T09:29:16.410Z,59.66
2023-03-06T09:32:20.738Z,60.22
2023-03-06T09:35:24.612Z,59.41
2023-03-06T09:38:29.179Z,59.32
2023-03-06T09:41:33.494Z,59.15
2023-03-06T09:44:37.368Z,59.20
2023-03-06T09:47:41.262Z,58.71
2023-03-06T09:50:45.269Z,58.21
2023-03-06T09:53:49.776Z,58.95
2023-03-06T09:56:58.636Z,58.97
2023-03-06T10:00:04.495Z,59.01
2023-03-06T10:03:11.013Z,57.76
2023-03-06T10:06:15.211Z,56.86
2023-03-06T10:09:20.060Z,56.99
2023-03-06T10:12:25.202Z,57.36
2023-03-06T10:15:29.462Z,55.87
2023-03-06T10:18:34.525Z,56.05
2023-03-06T10:21:38.851Z,56.43
2023-03-06T10:24:42.803Z,57.53
2023-03-06T10:27:47.916Z,57.10
2023-03-06T10:30:51.980Z,55.65
2023-03-06T10:33:56.078Z,55.89
2023-03-06T10:37:00.140Z,55.44
2023-03-06T10:40:03.867Z,56.87
2023-03-06T10:43:11.785Z,56.71
2023-03-06T10:46:17.280Z,58.57
2023-03-06T10:49:22.486Z,56.37
2023-03-06T10:52:26.885Z,56.34
2023-03-06T10:55:31.206Z,56.11
2023-03-06T10:58:35.278Z,55.64
2023-03-06T11:01:39.202Z,54.09
2023-03-06T11:04:43.117Z,53.43
2023-03-06T11:07:47.396Z,53.68
2023-03-06T11:10:51.596Z,53.23
2023-03-06T11:13:55.686Z,53.53
2023-03-06T11:16:59.629Z,53.97
2023-03-06T11:20:04.025Z,54.16
2023-03-06T11:23:08.085Z,52.88
2023-03-06T11:26:12.182Z,53.05
2023-03-06T11:29:16.179Z,52.00
2023-03-06T11:32:19.968Z,52.35
2023-03-06T11:35:23.939Z,51.17
2023-03-06T11:38:28.351Z,52.02
2023-03-06T11:41:32.385Z,50.81
2023-03-06T11:44:36.229Z,50.40
2023-03-06T11:47:40.146Z,52.36
2023-03-06T11:50:44.372Z,50.65
2023-03-06T11:53:48.676Z,52.92
2023-03-06T11:56:52.955Z,51.77
2023-03-06T11:59:56.869Z,49.33
2023-03-06T12:03:00.712Z,49.36
2023-03-06T12:06:05.136Z,49.90
2023-03-06T12:09:09.133Z,48.01
2023-03-06T12:12:13.063Z,47.81
2023-03-06T12:15:16.943Z,47.74
2023-03-06T12:18:20.766Z,47.79
2023-03-06T12:21:24.891Z,47.07
2023-03-06T12:24:28.856Z,48.26
2023-03-06T12:27:32.628Z,47.50
2023-03-06T12:30:36.754Z,48.51
2023-03-06T12:33:40.983Z,48.70
2023-03-06T12:36:45.236Z,47.85
2023-03-06T12:39:51.433Z,49.01
2023-03-06T12:42:55.532Z,46.98
2023-03-06T12:45:59.441Z,46.63
2023-03-06T12:49:03.415Z,47.04
2023-03-06T12:52:07.374Z,46.00
2023-03-06T12:55:11.194Z,45.82
2023-03-06T12:58:15.272Z,46.17
2023-03-06T13:01:19.595Z,46.05
2023-03-06T13:04:23.675Z,44.70
2023-03-06T13:07:27.814Z,44.81
2023-03-06T13:10:31.682Z,45.63
2023-03-06T13:13:35.607Z,44.07
2023-03-06T13:16:39.758Z,46.11
2023-03-06T13:19:43.748Z,46.08
2023-03-06T13:22:51.261Z,42.53
2023-03-06T13:25:55.130Z,43.82
2023-03-06T13:28:58.966Z,43.84
2023-03-06T13:32:02.932Z,44.21
2023-03-06T13:35:07.455Z,45.15
2023-03-06T13:38:11.475Z,45.10
2023-03-06T13:41:15.399Z,45.31
2023-03-06T13:44:19.431Z,44.95
2023-03-06T13:47:23.463Z,46.15
2023-03-06T13:50:27.773Z,44.29
2023-03-06T13:53:32.835Z,44.91
2023-03-06T13:56:36.731Z,44.31
2023-03-06T13:59:40.677Z,44.73
2023-03-06T14:02:44.804Z,44.72
2023-03-06T14:05:48.825Z,43.73
2023-03-06T14:08:53.150Z,43.36
2023-03-06T14:11:57.082Z,44.25
2023-03-06T14:15:03.281Z,44.49
2023-03-06T14:18:07.154Z,45.23
2023-03-06T14:21:11.093Z,45.22
2023-03-06T14:24:15.111Z,44.94
2023-03-06T14:27:19.048Z,45.94
2023-03-06T14:30:25.281Z,45.45
2023-03-06T14:33:32.601Z,47.32
2023-03-06T14:36:36.405Z,45.42
2023-03-06T14:39:40.555Z,45.54
2023-03-06T14:42:44.685Z,45.64
2023-03-06T14:45:48.651Z,46.13
2023-03-06T14:48:52.922Z,44.73
2023-03-06T14:51:57.228Z,46.72
2023-03-06T14:55:01.424Z,45.18
2023-03-06T14:58:05.339Z,44.45
2023-03-06T15:01:09.311Z,44.55
2023-03-06T15:04:13.722Z,42.30
2023-03-06T15:07:17.748Z,43.37
2023-03-06T15:10:22.328Z,43.92
2023-03-06T15:13:26.168Z,43.78
2023-03-06T15:16:31.421Z,43.69
2023-03-06T15:19:35.787Z,44.58
2023-03-06T15:22:39.729Z,43.33
2023-03-06T15:25:43.710Z,42.70
2023-03-06T15:28:47.632Z,46.14
2023-03-06T15:31:52.674Z,45.94
2023-03-06T15:34:56.777Z,47.38
2023-03-06T15:38:00.891Z,47.56
2023-03-06T15:41:05.070Z,45.83
2023-03-06T15:44:08.921Z,42.99
2023-03-06T15:47:13.029Z,40.77
2023-03-06T15:50:19.713Z,41.25
2023-03-06T15:53:23.952Z,40.35
2023-03-06T15:56:28.160Z,39.23
2023-03-06T15:59:31.774Z,39.73
2023-03-06T16:02:35.946Z,38.59
2023-03-06T16:05:39.835Z,38.63
2023-03-06T16:08:43.764Z,38.34
2023-03-06T16:11:47.928Z,37.43
2023-03-06T16:14:53.354Z,39.02
2023-03-06T16:17:57.583Z,38.17
2023-03-06T16:21:02.521Z,37.94
2023-03-06T16:24:06.418Z,38.25
2023-03-06T16:27:10.625Z,44.20
2023-03-06T16:30:14.937Z,42.46
2023-03-06T16:33:18.870Z,41.59
2023-03-06T16:36:23.160Z,42.11
2023-03-06T16:39:27.429Z,41.18
2023-03-06T16:42:31.385Z,41.48
2023-03-06T16:45:35.689Z,42.18
2023-03-06T16:48:39.558Z,40.99
2023-03-06T16:51:44.131Z,40.87
2023-03-06T16:54:49.256Z,42.03
2023-03-06T16:57:53.612Z,42.42
2023-03-06T17:00:57.616Z,42.17
2023-03-06T17:04:01.677Z,40.15
2023-03-06T17:07:05.965Z,38.82
2023-03-06T17:10:09.822Z,36.78
2023-03-06T17:13:13.463Z,36.19
2023-03-06T17:16:17.324Z,36.58
2023-03-06T17:19:24.429Z,37.46
2023-03-06T17:22:28.176Z,36.83
2023-03-06T17:25:32.377Z,38.87
2023-03-06T17:28:36.299Z,36.80
2023-03-06T17:31:40.382Z,37.73
2023-03-06T17:34:44.359Z,39.14
2023-03-06T17:37:48.931Z,38.13
2023-03-06T17:40:52.820Z,37.56
2023-03-06T17:43:57.719Z,38.91
2023-03-06T17:47:01.822Z,38.96
2023-03-06T17:50:05.942Z,39.07
2023-03-06T17:53:10.121Z,39.83
2023-03-06T17:56:14.002Z,39.33
2023-03-06T17:59:17.861Z,38.34
2023-03-06T18:02:21.687Z,38.66
2023-03-06T18:05:25.863Z,39.79
2023-03-06T18:08:30.101Z,39.27
2023-03-06T18:11:38.438Z,39.18
2023-03-06T18:14:43.930Z,40.15
2023-03-06T18:17:47.797Z,39.98
2023-03-06T18:20:51.947Z,38.40
2023-03-06T18:23:56.196Z,37.97
2023-03-06T18:27:00.507Z,39.05
2023-03-06T18:30:04.783Z,38.05
2023-03-06T18:36:30.703Z,39.69
2023-03-06T18:39:34.478Z,40.29
2023-03-06T18:42:38.284Z,40.60
2023-03-06T18:45:42.565Z,38.14
2023-03-06T18:48:46.589Z,39.12
2023-03-06T18:51:51.073Z,40.57
2023-03-06T18:54:55.412Z,40.45
2023-03-06T18:57:59.709Z,41.06
2023-03-06T19:01:03.993Z,39.48
2023-03-06T19:04:07.840Z,40.38
2023-03-06T19:07:11.711Z,40.78
2023-03-06T19:10:16.144Z,40.84
2023-03-06T19:13:19.964Z,42.21
2023-03-06T19:16:24.203Z,40.00
2023-03-06T19:19:29.349Z,41.01
2023-03-06T19:22:33.141Z,41.66
2023-03-06T19:25:37.287Z,41.88
2023-03-06T19:28:41.655Z,42.46
2023-03-06T19:31:45.738Z,42.12
2023-03-06T19:34:51.070Z,41.83
2023-03-06T19:37:54.941Z,42.06
2023-03-06T19:40:58.886Z,44.86
2023-03-06T19:44:03.348Z,42.59
2023-03-06T19:47:07.191Z,42.87
2023-03-06T19:50:11.000Z,43.21
2023-03-06T19:53:15.453Z,42.92
2023-03-06T19:56:19.841Z,42.89
2023-03-06T19:59:23.782Z,42.60
2023-03-06T20:02:27.553Z,43.01
2023-03-06T20:05:33.253Z,43.74
2023-03-06T20:08:37.350Z,43.74
2023-03-06T20:15:04.012Z,43.98
2023-03-06T20:18:08.432Z,43.57
2023-03-06T20:21:12.410Z,44.47
2023-03-06T20:24:16.739Z,44.85
2023-03-06T20:27:20.871Z,45.14
2023-03-06T20:30:26.442Z,45.17
2023-03-06T20:33:33.615Z,45.22
2023-03-06T20:36:37.739Z,44.21
2023-03-06T20:39:41.815Z,44.67
2023-03-06T20:42:47.456Z,44.34
2023-03-06T20:45:51.431Z,44.36
2023-03-06T20:48:55.789Z,44.54
2023-03-06T20:52:00.101Z,45.10
2023-03-06T20:55:04.188Z,44.77
2023-03-06T20:58:08.279Z,45.21
2023-03-06T21:01:12.168Z,45.45
2023-03-06T21:04:16.496Z,45.33
2023-03-06T21:07:31.612Z,45.22
2023-03-06T21:10:37.842Z,44.49
2023-03-06T21:13:41.990Z,44.66
2023-03-06T21:16:45.916Z,44.09
2023-03-06T21:19:49.887Z,44.23
2023-03-06T21:22:53.663Z,45.20
2023-03-06T21:25:58.044Z,45.60
2023-03-06T21:29:02.076Z,44.66
2023-03-06T21:32:06.036Z,45.71
2023-03-06T21:35:10.125Z,45.95
2023-03-06T21:38:14.113Z,44.37
2023-03-06T21:41:18.476Z,44.63
2023-03-06T21:44:22.355Z,44.46
2023-03-06T21:47:26.505Z,45.33
2023-03-06T21:53:53.166Z,48.04
2023-03-06T21:56:57.607Z,47.42
2023-03-06T22:00:01.790Z,49.37
2023-03-06T22:03:06.036Z,49.33
2023-03-06T22:09:31.821Z,48.99
2023-03-06T22:12:35.961Z,48.29
2023-03-06T22:15:40.090Z,47.28
2023-03-06T22:18:44.126Z,48.24
2023-03-06T22:21:48.098Z,49.54
2023-03-06T22:24:51.976Z,49.76
2023-03-06T22:27:56.049Z,50.15
2023-03-06T22:31:00.117Z,50.37
2023-03-06T22:34:04.048Z,48.46
2023-03-06T22:37:07.772Z,48.07
2023-03-06T22:40:12.986Z,49.30
2023-03-06T22:43:17.004Z,49.05
2023-03-06T22:46:20.626Z,49.94
2023-03-06T22:49:24.646Z,49.04
2023-03-06T22:52:28.660Z,49.77
2023-03-06T22:55:32.476Z,50.09
2023-03-06T22:58:39.513Z,48.03
2023-03-06T23:01:43.669Z,47.38
2023-03-06T23:04:47.841Z,49.37
2023-03-06T23:07:51.632Z,49.80
2023-03-06T23:10:55.627Z,49.10
2023-03-06T23:13:59.961Z,47.18
2023-03-06T23:17:04.091Z,46.93
2023-03-06T23:20:07.981Z,47.79
2023-03-06T23:23:12.257Z,48.25
2023-03-06T23:26:16.175Z,47.56
2023-03-06T23:29:20.448Z,46.71
2023-03-06T23:32:24.408Z,48.00
2023-03-06T23:35:28.418Z,48.07
2023-03-06T23:38:32.547Z,48.09
2023-03-06T23:41:36.695Z,48.52
2023-03-06T23:44:41.001Z,48.10
2023-03-06T23:47:44.906Z,47.50
2023-03-06T23:50:50.662Z,46.58
2023-03-06T23:53:54.858Z,46.92
2023-03-06T23:56:58.797Z,46.91
